If you wish to contribute or participate in the discussions about articles you are invited to join SKYbrary as a registered user

 Actions

Split Airport

From SKYbrary Wiki

LDSP
Airport
ICAO: LDSP – IATA: SPU
Summary
Name Split Airport
Region Europe
Territory Croatia HR.gif
Location Kastela, Dalmatia
Serving Split
Elevation 23.774 m <br />78 ft23.774 m <br />
Coordinates 43° 32' 19.54" N, 16° 17' 51.61" E
Runways
Designator Length Width Surface ROPS
5/23 2550 m8,366.142 ft <br /> 45 m147.638 ft <br /> ASP yes/yes


METAR
Observation LDSP 261100Z 20005KT 110V240 CAVOK 18/06 Q1020 BECMG 23006KT
Station Split / Resnik
Date/Time 26 October 2021 11:00:00
Wind direction 200°
Wind speed 05 kts
Lowest cloud amount clouds and visibility OK
Temperature 18°C
Dew point 6°C
Humidity 45%
QNH 1020 hPa
Weather condition n/a

International airport serving Split, Croatia.

Climatology

Dry-summer subtropical ”Mediterranean" climate (Köppen climate classification Csa)

Maps

Terrain

Loading map...

Airport Layout

Loading map...


Accidents & Serious Incidents at or in vicinity of LDSP

None on SKYbrary